sensor_id;sensor_type;location;lat;lon;timestamp;temperature;humidity
23703;DHT22;12030;50.376;8.762;2022-09-01T00:01:11;12.80;99.90
23703;DHT22;12030;50.376;8.762;2022-09-01T00:03:42;12.70;99.90
23703;DHT22;12030;50.376;8.762;2022-09-01T00:06:11;12.70;99.90
23703;DHT22;12030;50.376;8.762;2022-09-01T00:08:36;12.80;99.90
23703;DHT22;12030;50.376;8.762;2022-09-01T00:11:02;12.70;99.90
23703;DHT22;12030;50.376;8.762;2022-09-01T00:13:28;12.70;99.90
23703;DHT22;12030;50.376;8.762;2022-09-01T00:15:58;12.70;99.90
23703;DHT22;12030;50.376;8.762;2022-09-01T00:18:23;12.70;99.90
23703;DHT22;12030;50.376;8.762;2022-09-01T00:20:49;12.70;99.90
23703;DHT22;12030;50.376;8.762;2022-09-01T00:23:14;12.70;99.90
23703;DHT22;12030;50.376;8.762;2022-09-01T00:25:40;12.70;99.90
23703;DHT22;12030;50.376;8.762;2022-09-01T00:28:05;12.70;99.90
23703;DHT22;12030;50.376;8.762;2022-09-01T00:30:31;12.70;99.90
23703;DHT22;12030;50.376;8.762;2022-09-01T00:32:56;12.80;99.90
23703;DHT22;12030;50.376;8.762;2022-09-01T00:35:22;12.80;99.90
23703;DHT22;12030;50.376;8.762;2022-09-01T00:37:48;12.80;99.90
23703;DHT22;12030;50.376;8.762;2022-09-01T00:40:15;12.80;99.90
23703;DHT22;12030;50.376;8.762;2022-09-01T00:42:41;12.80;99.90
23703;DHT22;12030;50.376;8.762;2022-09-01T00:45:09;12.80;99.90
23703;DHT22;12030;50.376;8.762;2022-09-01T00:47:35;12.80;99.90
23703;DHT22;12030;50.376;8.762;2022-09-01T00:50:04;12.80;99.90
23703;DHT22;12030;50.376;8.762;2022-09-01T00:52:34;12.90;99.90
23703;DHT22;12030;50.376;8.762;2022-09-01T00:55:07;12.90;99.90
23703;DHT22;12030;50.376;8.762;2022-09-01T00:57:34;12.90;99.90
23703;DHT22;12030;50.376;8.762;2022-09-01T01:00:07;12.90;99.90
23703;DHT22;12030;50.376;8.762;2022-09-01T01:02:36;12.90;99.90
23703;DHT22;12030;50.376;8.762;2022-09-01T01:05:04;12.90;99.90
23703;DHT22;12030;50.376;8.762;2022-09-01T01:07:30;12.90;99.90
23703;DHT22;12030;50.376;8.762;2022-09-01T01:09:57;12.90;99.90
23703;DHT22;12030;50.376;8.762;2022-09-01T01:12:23;12.80;99.90
23703;DHT22;12030;50.376;8.762;2022-09-01T01:14:52;12.90;99.90
23703;DHT22;12030;50.376;8.762;2022-09-01T01:17:20;12.80;99.90
23703;DHT22;12030;50.376;8.762;2022-09-01T01:19:49;12.70;99.90
23703;DHT22;12030;50.376;8.762;2022-09-01T01:25:37;12.50;99.90
23703;DHT22;12030;50.376;8.762;2022-09-01T01:28:14;12.40;99.90
23703;DHT22;12030;50.376;8.762;2022-09-01T01:30:43;12.40;99.90
23703;DHT22;12030;50.376;8.762;2022-09-01T01:33:09;12.40;99.90
23703;DHT22;12030;50.376;8.762;2022-09-01T01:35:35;12.40;99.90
23703;DHT22;12030;50.376;8.762;2022-09-01T01:38:02;12.30;99.90
23703;DHT22;12030;50.376;8.762;2022-09-01T01:40:32;12.30;99.90
23703;DHT22;12030;50.376;8.762;2022-09-01T01:42:57;12.20;99.90
23703;DHT22;12030;50.376;8.762;2022-09-01T01:45:25;12.30;99.90
23703;DHT22;12030;50.376;8.762;2022-09-01T01:47:53;12.30;99.90
23703;DHT22;12030;50.376;8.762;2022-09-01T01:50:22;12.40;99.90
23703;DHT22;12030;50.376;8.762;2022-09-01T01:52:48;12.40;99.90
23703;DHT22;12030;50.376;8.762;2022-09-01T01:55:14;12.50;99.90
23703;DHT22;12030;50.376;8.762;2022-09-01T01:57:44;12.60;99.90
23703;DHT22;12030;50.376;8.762;2022-09-01T02:00:14;12.70;99.90
23703;DHT22;12030;50.376;8.762;2022-09-01T02:02:44;12.70;99.90
23703;DHT22;12030;50.376;8.762;2022-09-01T02:05:17;12.70;99.90
23703;DHT22;12030;50.376;8.762;2022-09-01T02:07:50;12.80;99.90
23703;DHT22;12030;50.376;8.762;2022-09-01T02:10:24;12.90;99.90
23703;DHT22;12030;50.376;8.762;2022-09-01T02:12:50;12.90;99.90
23703;DHT22;12030;50.376;8.762;2022-09-01T02:15:16;12.80;99.90
23703;DHT22;12030;50.376;8.762;2022-09-01T02:17:42;12.80;99.90
23703;DHT22;12030;50.376;8.762;2022-09-01T02:20:09;12.80;99.90
23703;DHT22;12030;50.376;8.762;2022-09-01T02:22:35;12.80;99.90
23703;DHT22;12030;50.376;8.762;2022-09-01T02:25:03;12.80;99.90
23703;DHT22;12030;50.376;8.762;2022-09-01T02:27:30;12.80;99.90
23703;DHT22;12030;50.376;8.762;2022-09-01T02:29:58;12.70;99.90
23703;DHT22;12030;50.376;8.762;2022-09-01T02:32:24;12.80;99.90
23703;DHT22;12030;50.376;8.762;2022-09-01T02:34:50;12.80;99.90
23703;DHT22;12030;50.376;8.762;2022-09-01T02:37:19;12.80;99.90
23703;DHT22;12030;50.376;8.762;2022-09-01T02:39:50;12.80;99.90
23703;DHT22;12030;50.376;8.762;2022-09-01T02:42:16;12.70;99.90
23703;DHT22;12030;50.376;8.762;2022-09-01T02:44:41;12.60;99.90
23703;DHT22;12030;50.376;8.762;2022-09-01T02:47:08;12.60;99.90
23703;DHT22;12030;50.376;8.762;2022-09-01T02:49:34;12.60;99.90
23703;DHT22;12030;50.376;8.762;2022-09-01T02:52:00;12.60;99.90
23703;DHT22;12030;50.376;8.762;2022-09-01T02:54:28;12.60;99.90
23703;DHT22;12030;50.376;8.762;2022-09-01T02:56:55;12.70;99.90
23703;DHT22;12030;50.376;8.762;2022-09-01T02:59:23;12.70;99.90
23703;DHT22;12030;50.376;8.762;2022-09-01T03:01:51;12.80;99.90
23703;DHT22;12030;50.376;8.762;2022-09-01T03:04:19;12.80;99.90
23703;DHT22;12030;50.376;8.762;2022-09-01T03:06:45;12.80;99.90
23703;DHT22;12030;50.376;8.762;2022-09-01T03:09:13;12.80;99.90
23703;DHT22;12030;50.376;8.762;2022-09-01T03:11:41;12.90;99.90
23703;DHT22;12030;50.376;8.762;2022-09-01T03:14:08;12.90;99.90
23703;DHT22;12030;50.376;8.762;2022-09-01T03:16:35;12.90;99.90
23703;DHT22;12030;50.376;8.762;2022-09-01T03:19:03;13.00;99.90
23703;DHT22;12030;50.376;8.762;2022-09-01T03:21:31;13.00;99.90
23703;DHT22;12030;50.376;8.762;2022-09-01T03:23:57;13.00;99.90
23703;DHT22;12030;50.376;8.762;2022-09-01T03:26:26;13.10;99.90
23703;DHT22;12030;50.376;8.762;2022-09-01T03:28:51;13.20;99.90
23703;DHT22;12030;50.376;8.762;2022-09-01T03:31:18;13.30;99.90
23703;DHT22;12030;50.376;8.762;2022-09-01T03:33:44;13.30;99.90
23703;DHT22;12030;50.376;8.762;2022-09-01T03:36:10;13.30;99.90
23703;DHT22;12030;50.376;8.762;2022-09-01T03:38:44;13.30;99.90
23703;DHT22;12030;50.376;8.762;2022-09-01T03:41:14;13.40;99.90
23703;DHT22;12030;50.376;8.762;2022-09-01T03:43:41;13.40;99.90
23703;DHT22;12030;50.376;8.762;2022-09-01T03:46:07;13.40;99.90
23703;DHT22;12030;50.376;8.762;2022-09-01T03:48:34;13.50;99.90
23703;DHT22;12030;50.376;8.762;2022-09-01T03:51:00;13.50;99.90
23703;DHT22;12030;50.376;8.762;2022-09-01T03:53:28;13.50;99.90
23703;DHT22;12030;50.376;8.762;2022-09-01T03:55:55;13.50;99.90
23703;DHT22;12030;50.376;8.762;2022-09-01T03:58:23;13.50;99.90
23703;DHT22;12030;50.376;8.762;2022-09-01T04:00:54;13.50;99.90
23703;DHT22;12030;50.376;8.762;2022-09-01T04:03:23;13.40;99.90
23703;DHT22;12030;50.376;8.762;2022-09-01T04:05:51;13.40;99.90
23703;DHT22;12030;50.376;8.762;2022-09-01T04:08:18;13.30;99.90
23703;DHT22;12030;50.376;8.762;2022-09-01T04:10:50;13.30;99.90
23703;DHT22;12030;50.376;8.762;2022-09-01T04:13:29;13.30;99.90
23703;DHT22;12030;50.376;8.762;2022-09-01T04:15:56;13.30;99.90
23703;DHT22;12030;50.376;8.762;2022-09-01T04:18:22;13.30;99.90
23703;DHT22;12030;50.376;8.762;2022-09-01T04:20:56;13.30;99.90
23703;DHT22;12030;50.376;8.762;2022-09-01T04:23:26;13.30;99.90
23703;DHT22;12030;50.376;8.762;2022-09-01T04:26:07;13.30;99.90
23703;DHT22;12030;50.376;8.762;2022-09-01T04:28:43;13.30;99.90
23703;DHT22;12030;50.376;8.762;2022-09-01T04:31:15;13.30;99.90
23703;DHT22;12030;50.376;8.762;2022-09-01T04:33:44;13.30;99.90
23703;DHT22;12030;50.376;8.762;2022-09-01T04:36:23;13.30;99.90
23703;DHT22;12030;50.376;8.762;2022-09-01T04:38:54;13.30;99.90
23703;DHT22;12030;50.376;8.762;2022-09-01T04:41:21;13.30;99.90
23703;DHT22;12030;50.376;8.762;2022-09-01T04:43:48;13.30;99.90
23703;DHT22;12030;50.376;8.762;2022-09-01T04:46:19;13.30;99.90
23703;DHT22;12030;50.376;8.762;2022-09-01T04:48:45;13.30;99.90
23703;DHT22;12030;50.376;8.762;2022-09-01T04:51:12;13.30;99.90
23703;DHT22;12030;50.376;8.762;2022-09-01T04:53:40;13.30;99.90
23703;DHT22;12030;50.376;8.762;2022-09-01T04:56:08;13.30;99.90
23703;DHT22;12030;50.376;8.762;2022-09-01T04:58:35;13.30;99.90
23703;DHT22;12030;50.376;8.762;2022-09-01T05:01:06;13.30;99.90
23703;DHT22;12030;50.376;8.762;2022-09-01T05:03:37;13.30;99.90
23703;DHT22;12030;50.376;8.762;2022-09-01T05:06:02;13.40;99.90
23703;DHT22;12030;50.376;8.762;2022-09-01T05:08:28;13.40;99.90
23703;DHT22;12030;50.376;8.762;2022-09-01T05:10:54;13.40;99.90
23703;DHT22;12030;50.376;8.762;2022-09-01T05:13:21;13.40;99.90
23703;DHT22;12030;50.376;8.762;2022-09-01T05:15:59;13.50;99.90
23703;DHT22;12030;50.376;8.762;2022-09-01T05:18:26;13.50;99.90
23703;DHT22;12030;50.376;8.762;2022-09-01T05:20:53;13.50;99.90
23703;DHT22;12030;50.376;8.762;2022-09-01T05:23:19;13.50;99.90
23703;DHT22;12030;50.376;8.762;2022-09-01T05:25:48;13.50;99.90
23703;DHT22;12030;50.376;8.762;2022-09-01T05:28:18;13.50;99.90
23703;DHT22;12030;50.376;8.762;2022-09-01T05:30:46;13.50;99.90
23703;DHT22;12030;50.376;8.762;2022-09-01T05:33:13;13.60;99.90
23703;DHT22;12030;50.376;8.762;2022-09-01T05:35:42;13.60;99.90
23703;DHT22;12030;50.376;8.762;2022-09-01T05:38:17;13.60;99.90
23703;DHT22;12030;50.376;8.762;2022-09-01T05:40:43;13.70;99.90
23703;DHT22;12030;50.376;8.762;2022-09-01T05:43:10;13.70;99.90
23703;DHT22;12030;50.376;8.762;2022-09-01T05:45:40;13.70;99.90
23703;DHT22;12030;50.376;8.762;2022-09-01T05:48:09;13.80;99.90
23703;DHT22;12030;50.376;8.762;2022-09-01T05:50:38;13.80;99.90
23703;DHT22;12030;50.376;8.762;2022-09-01T05:53:05;13.90;99.90
23703;DHT22;12030;50.376;8.762;2022-09-01T05:55:36;13.90;99.90
23703;DHT22;12030;50.376;8.762;2022-09-01T05:58:02;14.00;99.90
23703;DHT22;12030;50.376;8.762;2022-09-01T06:00:29;14.10;99.90
23703;DHT22;12030;50.376;8.762;2022-09-01T06:02:59;14.10;99.90
23703;DHT22;12030;50.376;8.762;2022-09-01T06:05:27;14.20;99.90
23703;DHT22;12030;50.376;8.762;2022-09-01T06:07:53;14.30;99.90
23703;DHT22;12030;50.376;8.762;2022-09-01T06:10:21;14.40;99.90
23703;DHT22;12030;50.376;8.762;2022-09-01T06:12:47;14.50;99.90
23703;DHT22;12030;50.376;8.762;2022-09-01T06:15:14;14.60;99.90
23703;DHT22;12030;50.376;8.762;2022-09-01T06:17:42;14.60;99.90
23703;DHT22;12030;50.376;8.762;2022-09-01T06:20:09;14.70;99.90
23703;DHT22;12030;50.376;8.762;2022-09-01T06:22:35;14.70;99.90
23703;DHT22;12030;50.376;8.762;2022-09-01T06:25:00;14.80;99.90
23703;DHT22;12030;50.376;8.762;2022-09-01T06:27:26;15.00;99.90
23703;DHT22;12030;50.376;8.762;2022-09-01T06:29:52;15.00;99.90
23703;DHT22;12030;50.376;8.762;2022-09-01T06:32:19;15.10;99.90
23703;DHT22;12030;50.376;8.762;2022-09-01T06:34:45;15.20;99.90
23703;DHT22;12030;50.376;8.762;2022-09-01T06:37:13;15.30;99.90
23703;DHT22;12030;50.376;8.762;2022-09-01T06:39:39;15.40;99.90
23703;DHT22;12030;50.376;8.762;2022-09-01T06:42:05;15.40;99.90
23703;DHT22;12030;50.376;8.762;2022-09-01T06:44:33;15.60;99.90
23703;DHT22;12030;50.376;8.762;2022-09-01T06:46:59;15.60;99.90
23703;DHT22;12030;50.376;8.762;2022-09-01T06:49:25;15.80;99.90
23703;DHT22;12030;50.376;8.762;2022-09-01T06:51:58;15.80;99.90
23703;DHT22;12030;50.376;8.762;2022-09-01T06:54:24;15.90;99.90
23703;DHT22;12030;50.376;8.762;2022-09-01T06:56:50;15.90;99.90
23703;DHT22;12030;50.376;8.762;2022-09-01T06:59:17;16.00;99.90
23703;DHT22;12030;50.376;8.762;2022-09-01T07:01:42;15.90;99.90
23703;DHT22;12030;50.376;8.762;2022-09-01T07:04:08;15.90;99.90
23703;DHT22;12030;50.376;8.762;2022-09-01T07:06:34;16.00;99.90
23703;DHT22;12030;50.376;8.762;2022-09-01T07:09:00;16.00;99.90
23703;DHT22;12030;50.376;8.762;2022-09-01T07:11:31;15.90;99.90
23703;DHT22;12030;50.376;8.762;2022-09-01T07:14:00;16.00;99.90
23703;DHT22;12030;50.376;8.762;2022-09-01T07:16:28;16.00;99.90
23703;DHT22;12030;50.376;8.762;2022-09-01T07:18:56;16.00;99.90
23703;DHT22;12030;50.376;8.762;2022-09-01T07:21:24;16.00;99.90
23703;DHT22;12030;50.376;8.762;2022-09-01T07:23:50;16.00;99.90
23703;DHT22;12030;50.376;8.762;2022-09-01T07:26:16;16.10;99.90
23703;DHT22;12030;50.376;8.762;2022-09-01T07:28:49;16.10;99.90
23703;DHT22;12030;50.376;8.762;2022-09-01T07:31:19;16.10;99.90
23703;DHT22;12030;50.376;8.762;2022-09-01T07:33:46;16.20;99.90
23703;DHT22;12030;50.376;8.762;2022-09-01T07:36:14;16.20;99.90
23703;DHT22;12030;50.376;8.762;2022-09-01T07:38:40;16.20;99.90
23703;DHT22;12030;50.376;8.762;2022-09-01T07:41:07;16.30;99.90
23703;DHT22;12030;50.376;8.762;2022-09-01T07:43:33;16.40;99.90
23703;DHT22;12030;50.376;8.762;2022-09-01T07:46:03;16.50;99.90
23703;DHT22;12030;50.376;8.762;2022-09-01T07:48:29;16.60;99.90
23703;DHT22;12030;50.376;8.762;2022-09-01T07:50:55;16.60;99.90
23703;DHT22;12030;50.376;8.762;2022-09-01T07:53:24;16.70;99.90
23703;DHT22;12030;50.376;8.762;2022-09-01T07:55:52;16.70;99.90
23703;DHT22;12030;50.376;8.762;2022-09-01T07:58:21;16.80;99.90
23703;DHT22;12030;50.376;8.762;2022-09-01T08:00:48;16.90;99.90
23703;DHT22;12030;50.376;8.762;2022-09-01T08:03:16;16.90;99.90
23703;DHT22;12030;50.376;8.762;2022-09-01T08:05:42;17.00;99.90
23703;DHT22;12030;50.376;8.762;2022-09-01T08:08:08;17.00;99.90
23703;DHT22;12030;50.376;8.762;2022-09-01T08:10:38;17.00;99.90
23703;DHT22;12030;50.376;8.762;2022-09-01T08:13:05;17.10;99.90
23703;DHT22;12030;50.376;8.762;2022-09-01T08:15:31;17.30;99.90
23703;DHT22;12030;50.376;8.762;2022-09-01T08:17:56;17.50;99.90
23703;DHT22;12030;50.376;8.762;2022-09-01T08:20:22;17.70;99.90
23703;DHT22;12030;50.376;8.762;2022-09-01T08:22:47;17.90;99.90
23703;DHT22;12030;50.376;8.762;2022-09-01T08:25:13;18.00;99.90
23703;DHT22;12030;50.376;8.762;2022-09-01T08:27:40;18.30;99.90
23703;DHT22;12030;50.376;8.762;2022-09-01T08:30:08;18.40;99.90
23703;DHT22;12030;50.376;8.762;2022-09-01T08:32:35;18.40;99.90
23703;DHT22;12030;50.376;8.762;2022-09-01T08:35:02;18.50;99.90
23703;DHT22;12030;50.376;8.762;2022-09-01T08:37:29;18.70;99.90
23703;DHT22;12030;50.376;8.762;2022-09-01T08:39:55;18.80;99.90
23703;DHT22;12030;50.376;8.762;2022-09-01T08:42:43;18.90;99.90
23703;DHT22;12030;50.376;8.762;2022-09-01T08:45:30;19.00;99.90
23703;DHT22;12030;50.376;8.762;2022-09-01T08:48:05;19.10;99.90
23703;DHT22;12030;50.376;8.762;2022-09-01T08:50:33;19.20;99.90
23703;DHT22;12030;50.376;8.762;2022-09-01T08:53:31;19.40;99.90
23703;DHT22;12030;50.376;8.762;2022-09-01T08:55:58;19.50;99.90
23703;DHT22;12030;50.376;8.762;2022-09-01T08:58:24;19.50;99.10
23703;DHT22;12030;50.376;8.762;2022-09-01T09:00:58;19.70;99.40
23703;DHT22;12030;50.376;8.762;2022-09-01T09:03:30;19.70;98.60
23703;DHT22;12030;50.376;8.762;2022-09-01T09:06:12;19.80;98.50
23703;DHT22;12030;50.376;8.762;2022-09-01T09:17:28;20.20;97.60
23703;DHT22;12030;50.376;8.762;2022-09-01T09:19:55;20.40;98.50
23703;DHT22;12030;50.376;8.762;2022-09-01T09:22:20;20.50;97.80
23703;DHT22;12030;50.376;8.762;2022-09-01T09:24:56;20.50;97.30
23703;DHT22;12030;50.376;8.762;2022-09-01T09:27:33;20.50;98.30
23703;DHT22;12030;50.376;8.762;2022-09-01T09:32:49;20.80;98.20
23703;DHT22;12030;50.376;8.762;2022-09-01T09:43:23;21.20;97.60
23703;DHT22;12030;50.376;8.762;2022-09-01T09:45:50;21.40;98.10
23703;DHT22;12030;50.376;8.762;2022-09-01T09:48:35;21.60;97.60
23703;DHT22;12030;50.376;8.762;2022-09-01T09:51:18;21.70;97.10
23703;DHT22;12030;50.376;8.762;2022-09-01T09:53:44;21.70;96.80
23703;DHT22;12030;50.376;8.762;2022-09-01T09:56:18;22.00;95.70
23703;DHT22;12030;50.376;8.762;2022-09-01T09:58:46;22.20;96.20
23703;DHT22;12030;50.376;8.762;2022-09-01T10:01:30;22.20;94.80
23703;DHT22;12030;50.376;8.762;2022-09-01T10:04:00;22.40;95.30
23703;DHT22;12030;50.376;8.762;2022-09-01T10:08:55;22.30;94.10
23703;DHT22;12030;50.376;8.762;2022-09-01T10:11:27;22.20;94.20
23703;DHT22;12030;50.376;8.762;2022-09-01T10:13:54;22.20;93.90
23703;DHT22;12030;50.376;8.762;2022-09-01T10:16:30;22.30;94.10
23703;DHT22;12030;50.376;8.762;2022-09-01T10:19:00;22.40;93.80
23703;DHT22;12030;50.376;8.762;2022-09-01T10:21:41;22.50;93.90
23703;DHT22;12030;50.376;8.762;2022-09-01T10:24:32;22.70;93.80
23703;DHT22;12030;50.376;8.762;2022-09-01T10:27:02;22.80;93.50
23703;DHT22;12030;50.376;8.762;2022-09-01T10:29:31;22.80;93.40
23703;DHT22;12030;50.376;8.762;2022-09-01T10:32:01;22.90;93.80
23703;DHT22;12030;50.376;8.762;2022-09-01T10:34:33;23.10;93.50
23703;DHT22;12030;50.376;8.762;2022-09-01T10:36:59;23.00;92.20
23703;DHT22;12030;50.376;8.762;2022-09-01T10:39:25;22.90;92.20
23703;DHT22;12030;50.376;8.762;2022-09-01T10:41:55;23.10;92.50
23703;DHT22;12030;50.376;8.762;2022-09-01T10:44:28;23.20;92.20
23703;DHT22;12030;50.376;8.762;2022-09-01T10:47:02;23.10;91.70
23703;DHT22;12030;50.376;8.762;2022-09-01T10:51:55;23.50;91.60
23703;DHT22;12030;50.376;8.762;2022-09-01T10:57:19;23.90;91.20
23703;DHT22;12030;50.376;8.762;2022-09-01T10:59:46;24.10;91.00
23703;DHT22;12030;50.376;8.762;2022-09-01T11:02:18;24.20;89.20
23703;DHT22;12030;50.376;8.762;2022-09-01T11:16:30;24.60;87.40
23703;DHT22;12030;50.376;8.762;2022-09-01T11:19:27;24.80;86.60
23703;DHT22;12030;50.376;8.762;2022-09-01T11:27:11;25.50;85.10
23703;DHT22;12030;50.376;8.762;2022-09-01T11:29:54;25.30;83.70
23703;DHT22;12030;50.376;8.762;2022-09-01T11:32:24;25.20;84.10
23703;DHT22;12030;50.376;8.762;2022-09-01T11:34:52;25.00;84.80
23703;DHT22;12030;50.376;8.762;2022-09-01T11:37:22;24.90;84.70
23703;DHT22;12030;50.376;8.762;2022-09-01T11:39:57;24.80;84.80
23703;DHT22;12030;50.376;8.762;2022-09-01T11:42:31;24.80;85.50
23703;DHT22;12030;50.376;8.762;2022-09-01T11:45:04;24.90;84.50
23703;DHT22;12030;50.376;8.762;2022-09-01T11:47:35;25.00;84.10
23703;DHT22;12030;50.376;8.762;2022-09-01T11:50:21;25.20;82.20
23703;DHT22;12030;50.376;8.762;2022-09-01T11:52:56;25.10;79.50
23703;DHT22;12030;50.376;8.762;2022-09-01T11:55:40;24.80;79.80
23703;DHT22;12030;50.376;8.762;2022-09-01T11:58:12;24.80;79.50
23703;DHT22;12030;50.376;8.762;2022-09-01T12:00:40;24.80;79.00
23703;DHT22;12030;50.376;8.762;2022-09-01T12:03:23;25.10;78.20
23703;DHT22;12030;50.376;8.762;2022-09-01T12:05:53;25.50;79.20
23703;DHT22;12030;50.376;8.762;2022-09-01T12:08:24;26.20;78.90
23703;DHT22;12030;50.376;8.762;2022-09-01T12:11:08;26.20;76.30
23703;DHT22;12030;50.376;8.762;2022-09-01T12:13:35;26.30;77.00
23703;DHT22;12030;50.376;8.762;2022-09-01T12:16:04;26.40;74.90
23703;DHT22;12030;50.376;8.762;2022-09-01T12:18:33;26.20;73.30
23703;DHT22;12030;50.376;8.762;2022-09-01T12:21:03;26.00;74.00
23703;DHT22;12030;50.376;8.762;2022-09-01T12:23:38;25.90;75.20
23703;DHT22;12030;50.376;8.762;2022-09-01T12:26:07;26.10;78.30
23703;DHT22;12030;50.376;8.762;2022-09-01T12:28:34;26.40;74.70
23703;DHT22;12030;50.376;8.762;2022-09-01T12:31:05;26.70;73.50
23703;DHT22;12030;50.376;8.762;2022-09-01T12:33:31;26.70;72.00
23703;DHT22;12030;50.376;8.762;2022-09-01T12:36:21;27.00;70.60
23703;DHT22;12030;50.376;8.762;2022-09-01T12:38:47;27.30;71.20
23703;DHT22;12030;50.376;8.762;2022-09-01T12:44:27;27.80;68.80
23703;DHT22;12030;50.376;8.762;2022-09-01T12:46:58;27.80;67.90
23703;DHT22;12030;50.376;8.762;2022-09-01T12:49:34;27.70;67.70
23703;DHT22;12030;50.376;8.762;2022-09-01T12:52:16;27.90;67.10
23703;DHT22;12030;50.376;8.762;2022-09-01T12:55:19;28.00;67.80
23703;DHT22;12030;50.376;8.762;2022-09-01T12:57:49;27.30;66.20
23703;DHT22;12030;50.376;8.762;2022-09-01T13:05:30;27.00;68.70
23703;DHT22;12030;50.376;8.762;2022-09-01T13:08:15;27.10;69.30
23703;DHT22;12030;50.376;8.762;2022-09-01T13:10:50;27.50;70.10
23703;DHT22;12030;50.376;8.762;2022-09-01T13:13:18;27.90;68.80
23703;DHT22;12030;50.376;8.762;2022-09-01T13:15:47;28.10;67.70
23703;DHT22;12030;50.376;8.762;2022-09-01T13:18:15;28.40;67.80
23703;DHT22;12030;50.376;8.762;2022-09-01T13:20:41;29.00;67.70
23703;DHT22;12030;50.376;8.762;2022-09-01T13:23:08;29.40;66.10
23703;DHT22;12030;50.376;8.762;2022-09-01T13:25:33;29.50;65.60
23703;DHT22;12030;50.376;8.762;2022-09-01T13:28:00;29.50;63.30
23703;DHT22;12030;50.376;8.762;2022-09-01T13:30:27;29.10;59.50
23703;DHT22;12030;50.376;8.762;2022-09-01T13:32:55;28.50;62.60
23703;DHT22;12030;50.376;8.762;2022-09-01T13:35:21;28.00;62.60
23703;DHT22;12030;50.376;8.762;2022-09-01T13:37:48;27.70;64.40
23703;DHT22;12030;50.376;8.762;2022-09-01T13:40:18;27.50;64.40
23703;DHT22;12030;50.376;8.762;2022-09-01T13:42:49;27.20;64.60
23703;DHT22;12030;50.376;8.762;2022-09-01T13:45:16;26.90;64.80
23703;DHT22;12030;50.376;8.762;2022-09-01T13:47:44;26.70;65.20
23703;DHT22;12030;50.376;8.762;2022-09-01T13:50:11;26.60;64.80
23703;DHT22;12030;50.376;8.762;2022-09-01T13:52:40;26.50;65.50
23703;DHT22;12030;50.376;8.762;2022-09-01T13:55:08;26.40;65.60
23703;DHT22;12030;50.376;8.762;2022-09-01T13:57:34;26.30;65.20
23703;DHT22;12030;50.376;8.762;2022-09-01T14:00:00;26.20;65.60
23703;DHT22;12030;50.376;8.762;2022-09-01T14:02:25;26.20;65.70
23703;DHT22;12030;50.376;8.762;2022-09-01T14:04:51;26.20;65.50
23703;DHT22;12030;50.376;8.762;2022-09-01T14:07:17;26.10;66.10
23703;DHT22;12030;50.376;8.762;2022-09-01T14:09:43;26.10;65.70
23703;DHT22;12030;50.376;8.762;2022-09-01T14:12:09;26.10;66.40
23703;DHT22;12030;50.376;8.762;2022-09-01T14:14:34;26.00;64.40
23703;DHT22;12030;50.376;8.762;2022-09-01T14:17:00;25.80;63.90
23703;DHT22;12030;50.376;8.762;2022-09-01T14:19:26;26.20;63.90
23703;DHT22;12030;50.376;8.762;2022-09-01T14:21:53;26.00;64.00
23703;DHT22;12030;50.376;8.762;2022-09-01T14:24:19;26.10;64.30
23703;DHT22;12030;50.376;8.762;2022-09-01T14:26:46;26.30;64.40
23703;DHT22;12030;50.376;8.762;2022-09-01T14:29:11;27.00;67.00
23703;DHT22;12030;50.376;8.762;2022-09-01T14:31:37;27.80;65.00
23703;DHT22;12030;50.376;8.762;2022-09-01T14:34:03;28.60;63.90
23703;DHT22;12030;50.376;8.762;2022-09-01T14:36:29;29.20;61.30
23703;DHT22;12030;50.376;8.762;2022-09-01T14:38:55;29.30;61.10
23703;DHT22;12030;50.376;8.762;2022-09-01T14:41:22;28.80;58.70
23703;DHT22;12030;50.376;8.762;2022-09-01T14:43:52;28.30;59.20
23703;DHT22;12030;50.376;8.762;2022-09-01T14:46:18;27.80;59.30
23703;DHT22;12030;50.376;8.762;2022-09-01T14:48:45;27.60;61.10
23703;DHT22;12030;50.376;8.762;2022-09-01T14:51:24;27.60;60.70
23703;DHT22;12030;50.376;8.762;2022-09-01T14:53:51;27.80;61.40
23703;DHT22;12030;50.376;8.762;2022-09-01T14:56:17;27.80;61.20
23703;DHT22;12030;50.376;8.762;2022-09-01T14:58:45;27.90;61.90
23703;DHT22;12030;50.376;8.762;2022-09-01T15:01:15;27.90;61.80
23703;DHT22;12030;50.376;8.762;2022-09-01T15:03:42;28.00;61.30
23703;DHT22;12030;50.376;8.762;2022-09-01T15:06:11;28.20;59.70
23703;DHT22;12030;50.376;8.762;2022-09-01T15:08:37;28.60;59.60
23703;DHT22;12030;50.376;8.762;2022-09-01T15:11:08;28.90;60.60
23703;DHT22;12030;50.376;8.762;2022-09-01T15:13:34;29.50;59.70
23703;DHT22;12030;50.376;8.762;2022-09-01T15:15:59;29.80;59.20
23703;DHT22;12030;50.376;8.762;2022-09-01T15:18:25;29.50;57.20
23703;DHT22;12030;50.376;8.762;2022-09-01T15:20:51;29.60;59.10
23703;DHT22;12030;50.376;8.762;2022-09-01T15:23:21;29.90;58.40
23703;DHT22;12030;50.376;8.762;2022-09-01T15:25:47;30.00;57.50
23703;DHT22;12030;50.376;8.762;2022-09-01T15:28:14;30.50;57.80
23703;DHT22;12030;50.376;8.762;2022-09-01T15:30:40;30.70;57.80
23703;DHT22;12030;50.376;8.762;2022-09-01T15:33:08;30.80;57.10
23703;DHT22;12030;50.376;8.762;2022-09-01T15:35:34;30.90;56.90
23703;DHT22;12030;50.376;8.762;2022-09-01T15:38:00;30.90;57.20
23703;DHT22;12030;50.376;8.762;2022-09-01T15:40:27;30.90;56.00
23703;DHT22;12030;50.376;8.762;2022-09-01T15:42:54;31.00;56.50
23703;DHT22;12030;50.376;8.762;2022-09-01T15:45:21;31.10;56.00
23703;DHT22;12030;50.376;8.762;2022-09-01T15:47:48;31.20;55.70
23703;DHT22;12030;50.376;8.762;2022-09-01T15:50:16;30.50;54.70
23703;DHT22;12030;50.376;8.762;2022-09-01T15:52:56;31.00;55.30
23703;DHT22;12030;50.376;8.762;2022-09-01T15:55:25;30.90;55.60
23703;DHT22;12030;50.376;8.762;2022-09-01T15:57:51;30.70;54.40
23703;DHT22;12030;50.376;8.762;2022-09-01T16:00:21;30.10;54.80
23703;DHT22;12030;50.376;8.762;2022-09-01T16:02:46;29.80;55.30
23703;DHT22;12030;50.376;8.762;2022-09-01T16:05:13;29.80;55.30
23703;DHT22;12030;50.376;8.762;2022-09-01T16:07:39;29.80;55.40
23703;DHT22;12030;50.376;8.762;2022-09-01T16:10:06;29.80;55.10
23703;DHT22;12030;50.376;8.762;2022-09-01T16:12:35;29.80;55.60
23703;DHT22;12030;50.376;8.762;2022-09-01T16:15:01;29.90;55.50
23703;DHT22;12030;50.376;8.762;2022-09-01T16:20:27;29.50;54.50
23703;DHT22;12030;50.376;8.762;2022-09-01T16:23:15;29.10;54.90
23703;DHT22;12030;50.376;8.762;2022-09-01T16:25:41;29.10;56.00
23703;DHT22;12030;50.376;8.762;2022-09-01T16:30:44;29.50;55.30
23703;DHT22;12030;50.376;8.762;2022-09-01T16:33:11;29.60;55.20
23703;DHT22;12030;50.376;8.762;2022-09-01T16:35:58;29.50;55.10
23703;DHT22;12030;50.376;8.762;2022-09-01T16:41:31;29.60;55.80
23703;DHT22;12030;50.376;8.762;2022-09-01T16:47:06;29.70;54.60
23703;DHT22;12030;50.376;8.762;2022-09-01T16:50:08;29.60;56.50